createdAt,value
2018-09-23T00:01:43.795Z,95652.27
2018-09-23T00:04:12.683Z,95651.55
2018-09-23T00:06:41.646Z,95653.49
2018-09-23T00:09:10.803Z,95654.00
2018-09-23T00:11:39.738Z,95648.83
2018-09-23T00:14:09.103Z,95642.08
2018-09-23T00:16:38.008Z,95630.23
2018-09-23T00:19:07.203Z,95631.85
2018-09-23T00:21:36.233Z,95632.77
2018-09-23T00:24:05.160Z,95641.20
2018-09-23T00:26:34.061Z,95631.52
2018-09-23T00:29:03.104Z,95630.91
2018-09-23T00:31:32.061Z,95620.61
2018-09-23T00:34:00.971Z,95624.14
2018-09-23T00:36:29.900Z,95619.86
2018-09-23T00:38:58.846Z,95619.89
2018-09-23T00:41:27.776Z,95612.98
2018-09-23T00:43:56.686Z,95626.14
2018-09-23T00:46:26.419Z,95628.78
2018-09-23T00:48:55.373Z,95623.33
2018-09-23T00:51:24.260Z,95622.45
2018-09-23T00:53:53.147Z,95624.24
2018-09-23T00:56:22.082Z,95631.23
2018-09-23T00:58:50.970Z,95638.94
2018-09-23T01:01:19.901Z,95637.44
2018-09-23T01:03:48.815Z,95635.36
2018-09-23T01:06:17.767Z,95623.28
2018-09-23T01:08:46.663Z,95628.59
2018-09-23T01:11:15.588Z,95621.94
2018-09-23T01:13:44.478Z,95623.80
2018-09-23T01:16:13.367Z,95625.71
2018-09-23T01:18:42.272Z,95631.73
2018-09-23T01:21:11.174Z,95628.44
2018-09-23T01:23:40.131Z,95630.05
2018-09-23T01:26:09.146Z,95636.06
2018-09-23T01:28:38.459Z,95630.92
2018-09-23T01:31:07.358Z,95628.06
2018-09-23T01:33:36.320Z,95633.55
2018-09-23T01:36:05.227Z,95638.07
2018-09-23T01:38:40.234Z,95636.52
2018-09-23T01:41:09.151Z,95641.20
2018-09-23T01:43:38.066Z,95637.51
2018-09-23T01:46:07.035Z,95633.09
2018-09-23T01:48:35.919Z,95633.30
2018-09-23T01:51:04.953Z,95628.44
2018-09-23T01:53:33.854Z,95634.86
2018-09-23T01:56:02.746Z,95630.14
2018-09-23T01:58:31.639Z,95629.20
2018-09-23T02:01:00.571Z,95626.45
2018-09-23T02:03:29.472Z,95628.89
2018-09-23T02:05:58.346Z,95630.17
2018-09-23T02:08:27.263Z,95628.02
2018-09-23T02:10:56.224Z,95625.05
2018-09-23T02:13:25.265Z,95636.09
2018-09-23T02:15:54.175Z,95628.21
2018-09-23T02:18:23.145Z,95636.86
2018-09-23T02:20:52.035Z,95622.75
2018-09-23T02:23:20.961Z,95628.27
2018-09-23T02:25:49.887Z,95639.14
2018-09-23T02:28:18.806Z,95638.44
2018-09-23T02:30:47.983Z,95643.56
2018-09-23T02:33:16.953Z,95636.97
2018-09-23T02:35:45.907Z,95647.54
2018-09-23T02:38:14.797Z,95646.52
2018-09-23T02:40:43.727Z,95645.06
2018-09-23T02:43:12.662Z,95640.67
2018-09-23T02:45:41.552Z,95642.14
2018-09-23T02:48:10.476Z,95644.28
2018-09-23T02:50:39.455Z,95631.32
2018-09-23T02:53:08.355Z,95633.98
2018-09-23T02:55:37.301Z,95643.99
2018-09-23T02:58:06.347Z,95640.93
2018-09-23T03:00:35.241Z,95639.41
2018-09-23T03:03:04.132Z,95639.45
2018-09-23T03:05:33.048Z,95639.16
2018-09-23T03:08:01.935Z,95648.06
2018-09-23T03:10:30.836Z,95646.43
2018-09-23T03:12:59.745Z,95643.82
2018-09-23T03:15:28.647Z,95651.36
2018-09-23T03:17:57.543Z,95646.53
2018-09-23T03:20:26.523Z,95633.45
2018-09-23T03:22:55.425Z,95646.04
2018-09-23T03:25:24.322Z,95637.00
2018-09-23T03:27:53.236Z,95637.89
2018-09-23T03:30:22.288Z,95637.39
2018-09-23T03:32:51.174Z,95637.94
2018-09-23T03:35:20.092Z,95644.30
2018-09-23T03:37:49.003Z,95640.03
2018-09-23T03:40:17.906Z,95643.45
2018-09-23T03:42:47.041Z,95643.53
2018-09-23T03:45:15.968Z,95634.00
2018-09-23T03:47:44.875Z,95636.71
2018-09-23T03:50:13.948Z,95634.18
2018-09-23T03:52:42.841Z,95636.57
2018-09-23T03:55:11.757Z,95630.72
2018-09-23T03:57:40.643Z,95637.83
2018-09-23T04:00:09.731Z,95641.63
2018-09-23T04:02:38.627Z,95643.34
2018-09-23T04:05:07.698Z,95649.17
2018-09-23T04:07:36.583Z,95652.91
2018-09-23T04:10:05.500Z,95658.83
2018-09-23T04:12:34.390Z,95658.41
2018-09-23T04:15:03.389Z,95657.31
2018-09-23T04:17:32.303Z,95664.05
2018-09-23T04:20:01.224Z,95661.92
2018-09-23T04:22:30.118Z,95664.20
2018-09-23T04:24:59.042Z,95668.47
2018-09-23T04:27:28.069Z,95668.09
2018-09-23T04:29:56.969Z,95668.19
2018-09-23T04:32:25.874Z,95668.86
2018-09-23T04:34:54.857Z,95672.31
2018-09-23T04:37:23.805Z,95678.41
2018-09-23T04:39:52.715Z,95678.03
2018-09-23T04:42:21.609Z,95680.81
2018-09-23T04:44:50.533Z,95683.95
2018-09-23T04:47:19.528Z,95681.88
2018-09-23T04:49:48.474Z,95682.18
2018-09-23T04:52:17.372Z,95680.50
2018-09-23T04:54:46.281Z,95680.05
2018-09-23T04:57:15.185Z,95681.67
2018-09-23T04:59:44.062Z,95684.27
2018-09-23T05:02:12.966Z,95683.81
2018-09-23T05:04:41.887Z,95689.59
2018-09-23T05:07:10.814Z,95697.11
2018-09-23T05:09:39.927Z,95695.83
2018-09-23T05:12:08.887Z,95696.67
2018-09-23T05:14:37.779Z,95700.89
2018-09-23T05:17:06.791Z,95707.17
2018-09-23T05:19:35.763Z,95710.61
2018-09-23T05:22:04.825Z,95717.54
2018-09-23T05:24:33.798Z,95717.67
2018-09-23T05:27:02.704Z,95716.55
2018-09-23T05:29:31.660Z,95710.63
2018-09-23T05:32:00.547Z,95717.13
2018-09-23T05:34:29.491Z,95716.17
2018-09-23T05:36:58.395Z,95722.05
2018-09-23T05:39:27.372Z,95727.02
2018-09-23T05:41:56.348Z,95726.05
2018-09-23T05:44:25.267Z,95730.00
2018-09-23T05:46:54.188Z,95722.53
2018-09-23T05:49:23.090Z,95722.36
2018-09-23T05:51:52.088Z,95727.16
2018-09-23T05:54:21.065Z,95728.48
2018-09-23T05:56:49.974Z,95725.42
2018-09-23T05:59:18.915Z,95728.01
2018-09-23T06:01:47.868Z,95737.57
2018-09-23T06:04:16.788Z,95741.83
2018-09-23T06:06:45.689Z,95737.09
2018-09-23T06:09:14.603Z,95737.58
2018-09-23T06:11:43.596Z,95737.89
2018-09-23T06:14:12.570Z,95734.94
2018-09-23T06:16:41.463Z,95740.23
2018-09-23T06:19:10.375Z,95742.66
2018-09-23T06:21:39.325Z,95743.09
2018-09-23T06:24:08.313Z,95744.97
2018-09-23T06:26:37.329Z,95746.36
2018-09-23T06:29:06.455Z,95744.65
2018-09-23T06:31:35.494Z,95752.03
2018-09-23T06:34:04.497Z,95755.42
2018-09-23T06:36:33.552Z,95752.82
2018-09-23T06:39:02.461Z,95751.55
2018-09-23T06:41:31.402Z,95752.95
2018-09-23T06:44:00.294Z,95751.55
2018-09-23T06:46:29.268Z,95754.27
2018-09-23T06:48:58.240Z,95765.59
2018-09-23T06:51:27.273Z,95760.27
2018-09-23T06:53:56.363Z,95768.93
2018-09-23T06:56:25.337Z,95768.93
2018-09-23T06:58:54.297Z,95770.05
2018-09-23T07:01:23.233Z,95755.70
2018-09-23T07:03:52.132Z,95762.92
2018-09-23T07:06:21.027Z,95760.59
2018-09-23T07:08:49.914Z,95757.70
2018-09-23T07:11:18.811Z,95756.99
2018-09-23T07:13:47.742Z,95764.73
2018-09-23T07:16:16.690Z,95746.46
2018-09-23T07:18:45.614Z,95744.84
2018-09-23T07:21:14.589Z,95749.97
2018-09-23T07:23:43.525Z,95748.34
2018-09-23T07:26:12.468Z,95749.45
2018-09-23T07:28:41.372Z,95759.41
2018-09-23T07:31:10.524Z,95761.26
2018-09-23T07:33:39.429Z,95754.04
2018-09-23T07:36:08.302Z,95751.80
2018-09-23T07:38:37.265Z,95752.41
2018-09-23T07:41:06.178Z,95749.45
2018-09-23T07:43:35.082Z,95748.78
2018-09-23T07:46:04.023Z,95754.16
2018-09-23T07:48:32.910Z,95750.06
2018-09-23T07:51:01.812Z,95758.23
2018-09-23T07:53:30.720Z,95753.95
2018-09-23T07:55:59.608Z,95752.83
2018-09-23T07:58:28.772Z,95747.84
2018-09-23T08:00:58.163Z,95753.05
2018-09-23T08:03:27.464Z,95746.17
2018-09-23T08:05:56.686Z,95748.87
2018-09-23T08:08:25.917Z,95749.78
2018-09-23T08:10:55.284Z,95749.13
2018-09-23T08:13:24.412Z,95744.21
2018-09-23T08:15:53.387Z,95737.27
2018-09-23T08:18:22.407Z,95740.42
2018-09-23T08:20:51.364Z,95741.77
2018-09-23T08:23:20.348Z,95746.54
2018-09-23T08:25:49.284Z,95752.82
2018-09-23T08:28:18.199Z,95748.67
2018-09-23T08:30:47.158Z,95743.75
2018-09-23T08:33:16.051Z,95745.27
2018-09-23T08:35:45.279Z,95744.14
2018-09-23T08:38:14.163Z,95740.58
2018-09-23T08:40:43.062Z,95736.31
2018-09-23T08:43:11.983Z,95729.14
2018-09-23T08:45:40.886Z,95729.06
2018-09-23T08:48:10.094Z,95725.94
2018-09-23T08:50:39.295Z,95725.37
2018-09-23T08:53:08.179Z,95723.67
2018-09-23T08:55:37.045Z,95726.30
2018-09-23T08:58:06.399Z,95716.79
2018-09-23T09:00:35.290Z,95714.08
2018-09-23T09:03:04.277Z,95715.55
2018-09-23T09:05:33.367Z,95717.57
2018-09-23T09:08:02.240Z,95713.23
2018-09-23T09:10:31.148Z,95711.64
2018-09-23T09:13:00.185Z,95710.19
2018-09-23T09:15:29.084Z,95698.33
2018-09-23T09:17:57.986Z,95696.06
2018-09-23T09:20:26.995Z,95693.34
2018-09-23T09:22:55.906Z,95690.86
2018-09-23T09:25:24.958Z,95693.98
2018-09-23T09:27:54.407Z,95689.36
2018-09-23T09:30:23.308Z,95688.56
2018-09-23T09:32:52.194Z,95691.45
2018-09-23T09:35:21.175Z,95691.34
2018-09-23T09:37:50.032Z,95689.02
2018-09-23T09:40:18.915Z,95694.16
2018-09-23T09:42:47.893Z,95686.98
2018-09-23T09:45:16.771Z,95690.53
2018-09-23T09:47:45.677Z,95682.42
2018-09-23T09:50:14.583Z,95684.39
2018-09-23T09:52:43.529Z,95687.97
2018-09-23T09:55:12.502Z,95688.09
2018-09-23T09:57:41.362Z,95685.77
2018-09-23T10:00:10.364Z,95682.06
2018-09-23T10:02:39.251Z,95680.90
2018-09-23T10:05:08.310Z,95674.95
2018-09-23T10:07:37.182Z,95669.41
2018-09-23T10:10:06.103Z,95664.75
2018-09-23T10:12:35.395Z,95660.92
2018-09-23T10:15:04.611Z,95658.84
2018-09-23T10:17:33.903Z,95657.60
2018-09-23T10:20:02.788Z,95650.09
2018-09-23T10:22:31.730Z,95647.07
2018-09-23T10:25:00.574Z,95649.78
2018-09-23T10:27:29.503Z,95651.94
2018-09-23T10:29:58.371Z,95651.64
2018-09-23T10:32:27.251Z,95644.98
2018-09-23T10:34:56.335Z,95645.64
2018-09-23T10:37:25.239Z,95637.80
2018-09-23T10:39:54.132Z,95636.23
2018-09-23T10:42:23.085Z,95639.76
2018-09-23T10:44:52.095Z,95635.03
2018-09-23T10:47:20.970Z,95620.94
2018-09-23T10:49:49.928Z,95626.56
2018-09-23T10:52:18.806Z,95628.88
2018-09-23T10:54:47.776Z,95620.64
2018-09-23T10:57:16.704Z,95603.58
2018-09-23T10:59:45.620Z,95608.66
2018-09-23T11:02:14.553Z,95601.73
2018-09-23T11:04:43.428Z,95604.66
2018-09-23T11:07:12.372Z,95601.34
2018-09-23T11:09:41.318Z,95591.19
2018-09-23T11:12:10.264Z,95594.91
2018-09-23T11:14:39.171Z,95596.02
2018-09-23T11:17:08.100Z,95593.85
2018-09-23T11:19:37.041Z,95591.66
2018-09-23T11:22:05.951Z,95586.45
2018-09-23T11:24:34.877Z,95582.31
2018-09-23T11:27:04.798Z,95571.56
2018-09-23T11:29:33.751Z,95572.72
2018-09-23T11:32:03.451Z,95566.66
2018-09-23T11:34:32.415Z,95561.80
2018-09-23T11:37:02.056Z,95563.75
2018-09-23T11:39:31.036Z,95547.34
2018-09-23T11:41:59.991Z,95552.54
2018-09-23T11:44:28.903Z,95545.05
2018-09-23T11:46:57.812Z,95538.99
2018-09-23T11:49:26.696Z,95542.29
2018-09-23T11:51:55.637Z,95540.95
2018-09-23T11:54:24.569Z,95542.09
2018-09-23T11:56:53.528Z,95526.65
2018-09-23T11:59:22.475Z,95525.84
2018-09-23T12:01:51.539Z,95516.66
2018-09-23T12:04:20.523Z,95515.68
2018-09-23T12:06:49.426Z,95513.58
2018-09-23T12:09:18.327Z,95521.25
2018-09-23T12:11:47.281Z,95507.86
2018-09-23T12:14:16.193Z,95501.03
2018-09-23T12:16:45.096Z,95503.25
2018-09-23T12:19:14.051Z,95497.75
2018-09-23T12:21:42.946Z,95497.41
2018-09-23T12:24:11.901Z,95495.97
2018-09-23T12:26:40.815Z,95494.81
2018-09-23T12:29:09.713Z,95490.72
2018-09-23T12:31:38.642Z,95486.81
2018-09-23T12:34:07.667Z,95481.15
2018-09-23T12:36:36.573Z,95476.08
2018-09-23T12:39:08.639Z,95474.50
2018-09-23T12:41:37.695Z,95472.35
2018-09-23T12:44:06.896Z,95475.30
2018-09-23T12:46:35.808Z,95469.68
2018-09-23T12:49:04.751Z,95459.14
2018-09-23T12:51:33.682Z,95463.28
2018-09-23T12:54:02.592Z,95465.58
2018-09-23T12:56:31.507Z,95465.98
2018-09-23T12:59:00.412Z,95466.64
2018-09-23T13:01:29.320Z,95458.71
2018-09-23T13:03:58.279Z,95464.95
2018-09-23T13:06:27.164Z,95465.05
2018-09-23T13:08:56.092Z,95466.92
2018-09-23T13:11:24.998Z,95466.61
2018-09-23T13:13:53.870Z,95459.42
2018-09-23T13:16:22.827Z,95468.59
2018-09-23T13:18:51.789Z,95452.54
2018-09-23T13:21:20.695Z,95454.27
2018-09-23T13:23:49.585Z,95455.28
2018-09-23T13:26:18.705Z,95452.75
2018-09-23T13:28:47.668Z,95448.90
2018-09-23T13:31:17.651Z,95447.31
2018-09-23T13:33:46.657Z,95443.85
2018-09-23T13:36:15.544Z,95442.21
2018-09-23T13:38:44.478Z,95443.73
2018-09-23T13:41:13.377Z,95441.67
2018-09-23T13:43:42.282Z,95438.73
2018-09-23T13:46:11.205Z,95443.13
2018-09-23T13:48:40.134Z,95446.41
2018-09-23T13:51:09.089Z,95446.75
2018-09-23T13:53:38.011Z,95446.92
2018-09-23T13:56:06.939Z,95441.32
2018-09-23T13:58:36.966Z,95446.73
2018-09-23T14:01:06.176Z,95437.81
2018-09-23T14:03:35.159Z,95434.55
2018-09-23T14:06:04.055Z,95438.20
2018-09-23T14:08:32.966Z,95435.00
2018-09-23T14:11:01.894Z,95437.02
2018-09-23T14:13:30.918Z,95433.64
2018-09-23T14:15:59.990Z,95429.27
2018-09-23T14:18:28.968Z,95434.84
2018-09-23T14:20:57.915Z,95427.48
2018-09-23T14:23:26.965Z,95426.14
2018-09-23T14:25:55.907Z,95421.89
2018-09-23T14:28:24.804Z,95426.04
2018-09-23T14:30:53.698Z,95429.39
2018-09-23T14:33:25.355Z,95427.55
2018-09-23T14:35:54.363Z,95429.63
2018-09-23T14:38:23.254Z,95426.89
2018-09-23T14:40:52.231Z,95430.63
2018-09-23T14:43:21.135Z,95431.52
2018-09-23T14:45:50.059Z,95429.39
2018-09-23T14:48:18.983Z,95429.70
2018-09-23T14:50:47.967Z,95431.52
2018-09-23T14:53:16.862Z,95431.80
2018-09-23T14:55:45.748Z,95432.58
2018-09-23T14:58:14.643Z,95429.37
2018-09-23T15:00:43.658Z,95429.65
2018-09-23T15:03:12.608Z,95431.97
2018-09-23T15:05:41.541Z,95425.78
2018-09-23T15:08:10.473Z,95426.96
2018-09-23T15:10:39.375Z,95429.86
2018-09-23T15:13:08.363Z,95430.61
2018-09-23T15:15:37.267Z,95433.88
2018-09-23T15:18:06.250Z,95443.43
2018-09-23T15:20:35.167Z,95437.49
2018-09-23T15:23:04.091Z,95436.30
2018-09-23T15:25:33.039Z,95442.54
2018-09-23T15:28:02.002Z,95438.19
2018-09-23T15:30:30.997Z,95434.54
2018-09-23T15:32:59.908Z,95435.59
2018-09-23T15:35:28.961Z,95433.90
2018-09-23T15:37:57.880Z,95435.77
2018-09-23T15:40:26.778Z,95435.94
2018-09-23T15:42:55.683Z,95443.00
2018-09-23T15:45:24.579Z,95443.28
2018-09-23T15:47:53.596Z,95438.06
2018-09-23T15:50:22.510Z,95444.44
2018-09-23T15:52:51.428Z,95445.22
2018-09-23T15:55:20.325Z,95440.46
2018-09-23T15:57:49.359Z,95447.30
2018-09-23T16:00:18.323Z,95440.52
2018-09-23T16:02:47.258Z,95432.18
2018-09-23T16:05:16.161Z,95445.02
2018-09-23T16:07:45.135Z,95447.69
2018-09-23T16:10:14.128Z,95450.89
2018-09-23T16:12:43.015Z,95453.36
2018-09-23T16:15:11.928Z,95457.55
2018-09-23T16:17:40.909Z,95454.55
2018-09-23T16:20:10.109Z,95457.02
2018-09-23T16:22:39.012Z,95458.88
2018-09-23T16:25:07.969Z,95456.84
2018-09-23T16:27:36.879Z,95455.44
2018-09-23T16:30:05.876Z,95457.05
2018-09-23T16:32:34.827Z,95456.70
2018-09-23T16:35:03.792Z,95455.81
2018-09-23T16:37:32.771Z,95456.05
2018-09-23T16:40:01.698Z,95457.74
2018-09-23T16:42:30.643Z,95457.67
2018-09-23T16:44:59.551Z,95452.22
2018-09-23T16:47:28.518Z,95456.98
2018-09-23T16:49:57.463Z,95454.89
2018-09-23T16:52:26.417Z,95450.77
2018-09-23T16:54:55.372Z,95456.31
2018-09-23T16:57:24.252Z,95459.67
2018-09-23T16:59:53.160Z,95462.75
2018-09-23T17:02:22.052Z,95467.69
2018-09-23T17:04:51.034Z,95464.66
2018-09-23T17:07:20.031Z,95463.73
2018-09-23T17:09:48.911Z,95468.38
2018-09-23T17:12:17.813Z,95469.92
2018-09-23T17:14:46.685Z,95472.27
2018-09-23T17:17:15.600Z,95464.50
2018-09-23T17:19:44.587Z,95462.80
2018-09-23T17:22:13.650Z,95470.33
2018-09-23T17:24:42.594Z,95483.78
2018-09-23T17:27:11.570Z,95482.64
2018-09-23T17:29:40.544Z,95488.06
2018-09-23T17:32:09.461Z,95487.61
2018-09-23T17:34:38.366Z,95482.00
2018-09-23T17:37:07.295Z,95489.19
2018-09-23T17:39:36.208Z,95496.43
2018-09-23T17:42:05.164Z,95490.39
2018-09-23T17:44:34.142Z,95502.81
2018-09-23T17:47:03.075Z,95505.77
2018-09-23T17:49:32.060Z,95506.86
2018-09-23T17:52:00.999Z,95503.22
2018-09-23T17:54:29.984Z,95506.70
2018-09-23T17:56:58.886Z,95499.38
2018-09-23T17:59:27.859Z,95502.05
2018-09-23T18:01:56.868Z,95501.48
2018-09-23T18:04:25.771Z,95501.19
2018-09-23T18:06:54.690Z,95502.55
2018-09-23T18:09:23.612Z,95501.69
2018-09-23T18:11:52.643Z,95498.28
2018-09-23T18:14:21.744Z,95499.83
2018-09-23T18:16:50.719Z,95501.17
2018-09-23T18:19:20.317Z,95498.03
2018-09-23T18:21:49.845Z,95497.00
2018-09-23T18:24:18.863Z,95499.44
2018-09-23T18:26:48.062Z,95501.95
2018-09-23T18:29:17.073Z,95498.86
2018-09-23T18:31:46.068Z,95498.13
2018-09-23T18:34:15.115Z,95496.94
2018-09-23T18:36:44.206Z,95497.77
2018-09-23T18:39:13.847Z,95496.58
2018-09-23T18:41:42.788Z,95499.83
2018-09-23T18:44:11.909Z,95496.27
2018-09-23T18:46:42.365Z,95496.05
2018-09-23T18:49:12.280Z,95500.44
2018-09-23T18:51:42.503Z,95490.09
2018-09-23T18:54:16.621Z,95491.69
2018-09-23T18:56:45.756Z,95488.87
2018-09-23T18:59:14.820Z,95486.89
2018-09-23T19:01:43.834Z,95488.70
2018-09-23T19:04:12.853Z,95484.62
2018-09-23T19:06:41.842Z,95486.77
2018-09-23T19:09:10.828Z,95485.72
2018-09-23T19:11:39.880Z,95493.70
2018-09-23T19:14:12.215Z,95493.41
2018-09-23T19:16:42.059Z,95489.84
2018-09-23T19:19:11.170Z,95488.80
2018-09-23T19:21:40.146Z,95481.22
2018-09-23T19:24:09.183Z,95481.31
2018-09-23T19:26:38.251Z,95483.35
2018-09-23T19:29:07.214Z,95482.08
2018-09-23T19:31:36.240Z,95481.09
2018-09-23T19:34:05.197Z,95475.09
2018-09-23T19:36:34.212Z,95476.25
2018-09-23T19:39:03.621Z,95478.02
2018-09-23T19:41:33.488Z,95483.55
2018-09-23T19:44:02.541Z,95484.23
2018-09-23T19:46:31.484Z,95464.37
2018-09-23T19:49:00.496Z,95478.75
2018-09-23T19:51:29.458Z,95483.88
2018-09-23T19:53:58.452Z,95483.77
2018-09-23T19:56:27.544Z,95479.71
2018-09-23T19:58:56.503Z,95481.23
2018-09-23T20:01:25.472Z,95476.77
2018-09-23T20:03:54.492Z,95480.75
2018-09-23T20:06:23.555Z,95482.01
2018-09-23T20:08:52.520Z,95477.43
2018-09-23T20:11:21.528Z,95470.69
2018-09-23T20:13:50.471Z,95468.74
2018-09-23T20:16:19.455Z,95473.38
2018-09-23T20:18:48.486Z,95476.03
2018-09-23T20:21:17.439Z,95468.91
2018-09-23T20:23:54.104Z,95470.58
2018-09-23T20:26:24.560Z,95468.91
2018-09-23T20:28:53.555Z,95466.59
2018-09-23T20:31:22.505Z,95475.58
2018-09-23T20:33:51.463Z,95468.87
2018-09-23T20:36:23.937Z,95465.59
2018-09-23T20:38:55.762Z,95455.52
2018-09-23T20:41:24.700Z,95460.53
2018-09-23T20:43:53.744Z,95454.89
2018-09-23T20:46:23.553Z,95458.95
2018-09-23T20:48:52.557Z,95457.03
2018-09-23T20:51:21.512Z,95447.64
2018-09-23T20:53:50.525Z,95450.80
2018-09-23T20:56:19.439Z,95448.07
2018-09-23T20:58:48.460Z,95439.19
2018-09-23T21:01:17.494Z,95435.34
2018-09-23T21:03:46.437Z,95437.30
2018-09-23T21:06:15.467Z,95435.34
2018-09-23T21:08:44.399Z,95436.48
2018-09-23T21:11:13.429Z,95431.91
2018-09-23T21:13:42.886Z,95431.05
2018-09-23T21:16:11.834Z,95433.97
2018-09-23T21:18:41.781Z,95432.38
2018-09-23T21:21:18.598Z,95427.28
2018-09-23T21:23:47.518Z,95427.09
2018-09-23T21:26:16.466Z,95423.84
2018-09-23T21:28:45.909Z,95415.99
2018-09-23T21:31:14.938Z,95424.55
2018-09-23T21:33:43.934Z,95421.30
2018-09-23T21:36:12.909Z,95414.47
2018-09-23T21:38:41.840Z,95412.25
2018-09-23T21:41:10.788Z,95416.04
2018-09-23T21:43:39.752Z,95412.38
2018-09-23T21:46:09.185Z,95415.50
2018-09-23T21:48:38.096Z,95415.73
2018-09-23T21:51:07.037Z,95412.37
2018-09-23T21:53:35.972Z,95414.00
2018-09-23T21:56:05.031Z,95412.69
2018-09-23T21:58:34.946Z,95413.60
2018-09-23T22:01:03.964Z,95415.95
2018-09-23T22:03:33.028Z,95406.89
2018-09-23T22:06:01.921Z,95404.75
2018-09-23T22:08:30.863Z,95405.58
2018-09-23T22:10:59.789Z,95399.02
2018-09-23T22:13:28.740Z,95401.17
2018-09-23T22:15:57.654Z,95397.93
2018-09-23T22:18:26.660Z,95395.79
2018-09-23T22:20:55.653Z,95390.60
2018-09-23T22:23:24.556Z,95390.19
2018-09-23T22:25:53.487Z,95388.05
2018-09-23T22:28:22.502Z,95376.31
2018-09-23T22:30:51.526Z,95374.57
2018-09-23T22:33:20.476Z,95373.03
2018-09-23T22:35:49.498Z,95379.80
2018-09-23T22:38:18.481Z,95373.99
2018-09-23T22:40:47.470Z,95375.44
2018-09-23T22:43:16.392Z,95375.95
2018-09-23T22:45:45.395Z,95373.91
2018-09-23T22:48:14.342Z,95371.95
2018-09-23T22:50:43.255Z,95368.16
2018-09-23T22:53:12.379Z,95377.24
2018-09-23T22:55:42.333Z,95370.02
2018-09-23T22:58:11.268Z,95375.92
2018-09-23T23:00:40.222Z,95369.81
2018-09-23T23:03:09.221Z,95371.13
2018-09-23T23:05:38.144Z,95364.84
2018-09-23T23:08:07.133Z,95367.58
2018-09-23T23:10:36.087Z,95361.98
2018-09-23T23:13:05.011Z,95365.23
2018-09-23T23:15:33.941Z,95353.32
2018-09-23T23:18:02.852Z,95353.02
2018-09-23T23:20:31.836Z,95350.45
2018-09-23T23:23:00.770Z,95353.41
2018-09-23T23:25:29.789Z,95349.47
2018-09-23T23:27:59.472Z,95345.08
2018-09-23T23:30:28.450Z,95342.00
2018-09-23T23:32:57.372Z,95335.00
2018-09-23T23:35:26.511Z,95333.88
2018-09-23T23:37:55.415Z,95338.13
2018-09-23T23:40:24.412Z,95329.05
2018-09-23T23:42:53.346Z,95327.01
2018-09-23T23:45:22.272Z,95326.70
2018-09-23T23:47:51.207Z,95327.82
2018-09-23T23:50:20.143Z,95333.14
2018-09-23T23:52:49.133Z,95324.56
2018-09-23T23:55:18.073Z,95321.32
2018-09-23T23:57:47.029Z,95315.39
